createdAt,value
2022-10-25T00:03:53.340Z,12.29
2022-10-25T00:08:54.959Z,12.25
2022-10-25T00:13:59.569Z,12.47
2022-10-25T00:19:01.171Z,12.77
2022-10-25T00:24:02.933Z,12.87
2022-10-25T00:29:04.573Z,13.36
2022-10-25T00:34:06.149Z,13.56
2022-10-25T00:39:07.815Z,13.54
2022-10-25T00:44:34.283Z,13.53
2022-10-25T00:49:35.990Z,13.67
2022-10-25T00:54:42.800Z,13.59
2022-10-25T00:59:45.796Z,13.82
2022-10-25T01:04:47.719Z,13.92
2022-10-25T01:09:50.697Z,13.77
2022-10-25T01:14:53.082Z,13.92
2022-10-25T01:20:00.732Z,14.14
2022-10-25T01:25:17.448Z,14.39
2022-10-25T01:30:21.474Z,14.35
2022-10-25T01:35:30.991Z,14.56
2022-10-25T01:40:51.105Z,14.27
2022-10-25T01:46:03.710Z,13.93
2022-10-25T01:51:10.664Z,14.05
2022-10-25T01:56:19.001Z,13.79
2022-10-25T02:01:36.331Z,13.75
2022-10-25T02:06:59.368Z,13.61
2022-10-25T02:12:04.643Z,13.96
2022-10-25T02:17:16.697Z,14.00
2022-10-25T02:22:21.668Z,14.11
2022-10-25T02:27:25.057Z,14.14
2022-10-25T02:32:27.715Z,14.14
2022-10-25T02:37:29.308Z,14.06
2022-10-25T02:42:30.970Z,14.10
2022-10-25T02:47:32.565Z,13.85
2022-10-25T02:52:34.235Z,13.85
2022-10-25T02:57:37.508Z,13.94
2022-10-25T03:02:39.045Z,13.95
2022-10-25T03:07:40.618Z,13.78
2022-10-25T03:12:42.257Z,13.57
2022-10-25T03:17:43.986Z,13.34
2022-10-25T03:22:45.753Z,13.14
2022-10-25T03:27:47.741Z,13.00
2022-10-25T03:32:49.534Z,12.86
2022-10-25T03:37:52.365Z,12.67
2022-10-25T03:42:53.934Z,12.61
2022-10-25T03:47:55.494Z,12.78
2022-10-25T03:52:57.060Z,12.76
2022-10-25T03:57:59.035Z,12.68
2022-10-25T04:03:02.553Z,13.03
2022-10-25T04:08:04.694Z,13.12
2022-10-25T04:13:06.338Z,13.28
2022-10-25T04:18:07.885Z,13.34
2022-10-25T04:23:09.554Z,13.53
2022-10-25T04:28:11.097Z,13.54
2022-10-25T04:33:12.670Z,13.50
2022-10-25T04:38:14.392Z,13.59
2022-10-25T04:43:15.982Z,13.62
2022-10-25T04:48:18.365Z,13.51
2022-10-25T04:53:20.072Z,13.50
2022-10-25T04:58:21.701Z,13.35
2022-10-25T05:03:23.285Z,13.17
2022-10-25T05:08:24.884Z,13.05
2022-10-25T05:13:26.522Z,12.94
2022-10-25T05:18:28.170Z,12.98
2022-10-25T05:23:31.990Z,13.05
2022-10-25T05:28:35.720Z,13.11
2022-10-25T05:33:40.419Z,13.04
2022-10-25T05:38:42.836Z,12.95
2022-10-25T05:43:45.297Z,13.34
2022-10-25T05:48:49.102Z,13.32
2022-10-25T05:53:52.726Z,13.26
2022-10-25T05:58:57.080Z,13.50
2022-10-25T06:03:58.610Z,13.50
2022-10-25T06:09:01.323Z,13.44
2022-10-25T06:14:03.748Z,13.63
2022-10-25T06:19:05.374Z,13.74
2022-10-25T06:24:07.042Z,13.91
2022-10-25T06:29:09.553Z,14.08
2022-10-25T06:34:11.245Z,14.18
2022-10-25T06:39:12.818Z,14.06
2022-10-25T06:44:14.532Z,14.24
2022-10-25T06:49:16.131Z,14.24
2022-10-25T06:54:17.836Z,14.30
2022-10-25T06:59:20.529Z,14.30
2022-10-25T07:04:22.266Z,14.51
2022-10-25T07:09:25.336Z,14.69
2022-10-25T07:14:26.974Z,14.83
2022-10-25T07:19:28.495Z,14.87
2022-10-25T07:24:30.096Z,14.89
2022-10-25T07:29:31.679Z,14.85
2022-10-25T07:34:33.403Z,14.84
2022-10-25T07:39:35.047Z,14.97
2022-10-25T07:44:36.713Z,15.11
2022-10-25T07:49:39.963Z,15.13
2022-10-25T07:59:43.178Z,15.41
2022-10-25T08:04:44.875Z,15.46
2022-10-25T08:09:46.481Z,15.51
2022-10-25T08:14:49.792Z,15.52
2022-10-25T08:19:51.608Z,15.54
2022-10-25T08:24:53.590Z,15.51
2022-10-25T08:29:55.262Z,15.61
2022-10-25T08:34:56.987Z,15.64
2022-10-25T08:39:58.564Z,15.57
2022-10-25T08:45:11.076Z,15.65
2022-10-25T08:50:20.691Z,15.70
2022-10-25T08:55:44.551Z,15.99
2022-10-25T09:00:57.452Z,16.17
2022-10-25T09:06:20.837Z,16.18
2022-10-25T09:11:50.361Z,16.22
2022-10-25T09:16:55.749Z,16.48
2022-10-25T09:22:01.326Z,16.53
2022-10-25T09:27:09.022Z,16.57
2022-10-25T09:32:24.713Z,16.62
2022-10-25T09:37:42.098Z,16.58
2022-10-25T09:42:53.016Z,16.58
2022-10-25T09:48:06.169Z,16.52
2022-10-25T09:53:14.247Z,16.21
2022-10-25T09:58:23.970Z,16.25
2022-10-25T10:03:31.990Z,16.09
2022-10-25T10:08:35.414Z,16.14
2022-10-25T10:13:48.693Z,16.05
2022-10-25T10:18:50.285Z,16.20
2022-10-25T10:24:02.308Z,16.21
2022-10-25T10:29:15.390Z,16.23
2022-10-25T10:34:30.894Z,16.16
2022-10-25T10:39:32.714Z,16.30
2022-10-25T10:44:34.845Z,16.46
2022-10-25T10:49:40.871Z,16.38
2022-10-25T10:54:48.001Z,16.33
2022-10-25T10:59:56.418Z,16.42
2022-10-25T11:04:58.253Z,16.44
2022-10-25T11:10:15.318Z,16.61
2022-10-25T11:15:18.270Z,17.39
2022-10-25T11:20:56.914Z,18.00
2022-10-25T11:26:07.332Z,18.80
2022-10-25T11:31:12.283Z,18.59
2022-10-25T11:36:23.157Z,18.72
2022-10-25T11:41:46.107Z,18.91
2022-10-25T11:47:15.603Z,18.66
2022-10-25T11:52:35.804Z,18.66
2022-10-25T11:57:37.577Z,18.32
2022-10-25T12:03:03.317Z,18.07
2022-10-25T12:08:14.142Z,18.11
2022-10-25T12:13:19.650Z,17.69
2022-10-25T12:18:49.515Z,17.50
2022-10-25T12:23:53.508Z,17.30
2022-10-25T12:28:59.961Z,17.32
2022-10-25T12:34:08.950Z,17.23
2022-10-25T12:39:36.622Z,17.30
2022-10-25T12:44:58.405Z,17.22
2022-10-25T12:50:15.301Z,17.17
2022-10-25T12:55:26.558Z,17.35
2022-10-25T13:00:37.295Z,17.19
2022-10-25T13:06:02.071Z,17.20
2022-10-25T13:11:06.801Z,17.09
2022-10-25T13:16:10.728Z,17.08
2022-10-25T13:21:15.730Z,17.00
2022-10-25T13:26:25.807Z,16.97
2022-10-25T13:31:36.674Z,17.13
2022-10-25T13:36:52.953Z,17.35
2022-10-25T13:42:02.574Z,17.20
2022-10-25T13:47:04.337Z,17.28
2022-10-25T13:52:24.893Z,17.08
2022-10-25T13:57:56.611Z,17.03
2022-10-25T14:03:10.327Z,17.11
2022-10-25T14:08:45.142Z,17.09
2022-10-25T14:14:05.276Z,17.00
2022-10-25T14:19:16.745Z,16.84
2022-10-25T14:24:19.995Z,16.83
2022-10-25T14:29:25.056Z,16.84
2022-10-25T14:34:30.150Z,16.70
2022-10-25T14:39:32.191Z,16.62
2022-10-25T14:44:50.639Z,16.53
2022-10-25T14:49:52.301Z,16.41
2022-10-25T14:55:06.127Z,16.26
2022-10-25T15:00:18.315Z,16.09
2022-10-25T15:05:22.780Z,15.82
2022-10-25T15:10:30.697Z,15.61
2022-10-25T15:15:40.660Z,15.50
2022-10-25T15:20:42.590Z,15.49
2022-10-25T15:25:44.483Z,15.28
2022-10-25T15:30:48.894Z,15.20
2022-10-25T15:35:55.697Z,14.89
2022-10-25T15:40:57.741Z,14.67
2022-10-25T15:46:00.407Z,14.58
2022-10-25T15:51:02.231Z,14.39
2022-10-25T15:56:04.345Z,14.17
2022-10-25T16:01:06.450Z,13.98
2022-10-25T16:06:11.562Z,13.86
2022-10-25T16:11:16.839Z,13.70
2022-10-25T16:16:41.061Z,13.57
2022-10-25T16:21:43.666Z,13.48
2022-10-25T16:26:48.684Z,13.38
2022-10-25T16:31:50.738Z,13.36
2022-10-25T16:36:53.084Z,13.44
2022-10-25T16:41:56.739Z,13.54
2022-10-25T16:46:59.991Z,13.36
2022-10-25T16:52:01.521Z,13.23
2022-10-25T16:57:03.150Z,13.29
2022-10-25T17:02:05.300Z,13.30
2022-10-25T17:07:06.953Z,13.51
2022-10-25T17:12:10.096Z,13.35
2022-10-25T17:17:11.835Z,13.10
2022-10-25T17:22:13.456Z,12.99
2022-10-25T17:27:14.988Z,12.78
2022-10-25T17:32:16.546Z,12.67
2022-10-25T17:37:18.064Z,12.60
2022-10-25T17:42:20.245Z,12.56
2022-10-25T17:47:21.982Z,12.51
2022-10-25T17:52:23.540Z,12.47
2022-10-25T17:57:25.130Z,12.67
2022-10-25T18:02:27.919Z,12.58
2022-10-25T18:07:32.706Z,12.36
2022-10-25T18:12:36.568Z,12.29
2022-10-25T18:17:38.099Z,12.27
2022-10-25T18:22:39.616Z,12.09
2022-10-25T18:27:41.472Z,11.96
2022-10-25T18:32:43.041Z,11.91
2022-10-25T18:37:44.584Z,11.80
2022-10-25T18:42:46.230Z,11.77
2022-10-25T18:47:53.368Z,11.58
2022-10-25T18:52:54.892Z,11.47
2022-10-25T18:57:58.762Z,11.34
2022-10-25T19:03:00.310Z,11.38
2022-10-25T19:08:01.806Z,11.34
2022-10-25T19:13:04.233Z,11.19
2022-10-25T19:18:05.928Z,11.04
2022-10-25T19:23:08.288Z,11.02
2022-10-25T19:28:10.128Z,10.91
2022-10-25T19:33:11.755Z,11.03
2022-10-25T19:38:14.476Z,10.87
2022-10-25T19:43:15.980Z,10.67
2022-10-25T19:48:17.521Z,10.73
2022-10-25T19:53:19.379Z,10.99
2022-10-25T19:58:20.891Z,11.15
2022-10-25T20:03:22.461Z,10.93
2022-10-25T20:08:23.988Z,10.67
2022-10-25T20:13:25.795Z,10.78
2022-10-25T20:18:31.964Z,10.87
2022-10-25T20:23:34.541Z,10.92
2022-10-25T20:28:36.100Z,10.67
2022-10-25T20:33:38.801Z,10.30
2022-10-25T20:38:41.138Z,10.18
2022-10-25T20:43:46.841Z,10.13
2022-10-25T20:48:48.391Z,10.08
2022-10-25T20:53:50.026Z,10.40
2022-10-25T20:58:51.979Z,10.55
2022-10-25T21:03:54.111Z,10.34
2022-10-25T21:08:55.773Z,9.91
2022-10-25T21:13:57.321Z,9.89
2022-10-25T21:19:03.217Z,9.90
2022-10-25T21:24:06.136Z,9.87
2022-10-25T21:29:07.830Z,10.13
2022-10-25T21:34:09.412Z,9.66
2022-10-25T21:39:11.027Z,9.41
2022-10-25T21:44:12.602Z,9.41
2022-10-25T21:49:14.228Z,9.67
2022-10-25T21:54:16.073Z,9.71
2022-10-25T21:59:17.721Z,9.24
2022-10-25T22:04:19.304Z,9.09
2022-10-25T22:09:20.879Z,8.98
2022-10-25T22:14:22.452Z,9.08
2022-10-25T22:24:30.681Z,9.17
2022-10-25T22:29:32.317Z,8.77
2022-10-25T22:34:33.931Z,8.68
2022-10-25T22:39:35.596Z,8.65
2022-10-25T22:44:38.571Z,8.79
2022-10-25T22:49:40.388Z,8.72
2022-10-25T22:54:42.105Z,8.76
2022-10-25T22:59:43.713Z,8.96
2022-10-25T23:04:45.342Z,8.92
2022-10-25T23:09:47.050Z,8.78
2022-10-25T23:14:48.562Z,8.40
2022-10-25T23:19:50.109Z,8.24
2022-10-25T23:24:51.740Z,8.34
2022-10-25T23:29:53.341Z,8.28
2022-10-25T23:34:57.019Z,8.57
2022-10-25T23:39:58.824Z,8.28
2022-10-25T23:45:03.205Z,8.08
2022-10-25T23:50:05.400Z,7.95
2022-10-25T23:55:07.654Z,8.00
